• Join FlightAware (Why Join?)
  • Login
  • US Flag 
08:02PM EDT


 

Airport Tracker/Info


-or-


 

Live Flight TrackerFlight Track Log ✈ AWI3778 ✈ 14-Jun-2013 ✈ KPHL - KBTV

Flight Track Log - Related Links

Times and Time Zones

All times are in EDT time to prevent confusion due to time zone crossing. See the AWI3778 flight status page for this flight to view local times or setup timezone preferences in your user account.

Time Position Orientation Groundspeed Altitude Reporting Facility
EDT Latitude Longitude Course Direction KTS MPH feet Rate Location/Type
11:40AM 39.8667 -75.2833 37° Northeast 183 211 1,000  Level Philadelphia TRACON
11:41AM 39.8167 -75.3167 207° Southwest 225 259 3,000 2,160 Climbing Philadelphia TRACON
11:42AM 39.7833 -75.3667 229° Southwest 237 273 4,900 1,860 Climbing Philadelphia TRACON
11:43AM 39.8167 -74.8908 90° East  Level FlightAware Approximate
11:43AM 39.7000 -75.3500 171° South 289 333 6,600  Level Philadelphia TRACON
11:44AM 39.7981 -74.7739 105° East  Level FlightAware Approximate
11:44AM 39.7000 -75.2667 90° East 255 293 8,900  Level Philadelphia TRACON
11:45AM 39.8099 -74.6735 37° Northeast  Level FlightAware Approximate
11:45AM 39.7167 -75.1667 78° East 274 315 10,600  Level Philadelphia TRACON
11:46AM 39.8830 -74.6004 37° Northeast  Level FlightAware Approximate
11:47AM 39.7564 -74.9375 77° East 328 377 12,000  Level New York Center
11:48AM 39.7750 -74.8250 78° East 349 402 13,200 1,320 Climbing New York Center
11:49AM 39.8019 -74.7022 74° East 354 407 14,700 1,500 Climbing New York Center
11:50AM 39.8817 -74.6283 35° Northeast 324 373 16,200 1,920 Climbing New York Center
11:51AM 39.9569 -74.5567 36° Northeast 324 373 18,600 1,320 Climbing New York Center
11:52AM 40.0281 -74.4875 37° Northeast 341 392 18,900 600 Climbing New York Center
11:53AM 40.1183 -74.3972 37° Northeast 353 406 19,900 840 Climbing New York Center
11:54AM 40.2022 -74.3147 37° Northeast 364 419 20,600 840 Climbing New York Center
11:55AM 40.2903 -74.2267 37° Northeast 378 435 21,600 1,140 Climbing New York Center
11:56AM 40.3758 -74.1439 36° Northeast 378 435 23,000 1,260 Climbing New York Center
11:57AM 40.4597 -74.0578 38° Northeast 378 435 24,100 960 Climbing New York Center
11:58AM 40.5353 -73.9606 44° Northeast 378 435 25,000 300 Climbing New York Center
12:00PM 40.7219 -73.8722 20° North 400 460 25,000  Level Boston Center
12:01PM 40.8269 -73.8197 21° North 394 453 25,000  Level Boston Center
12:02PM 40.9294 -73.7697 20° North 389 448 25,000  Level Boston Center
12:03PM 41.0322 -73.7142 22° Northeast 389 448 25,000  Level Boston Center
12:04PM 41.1350 -73.6608 21° North 389 448 25,000  Level Boston Center
12:05PM 41.2397 -73.6106 20° North 389 448 25,000  Level Boston Center
12:06PM 41.3425 -73.5572 21° North 389 448 25,000  Level Boston Center
12:07PM 41.4431 -73.5061 21° North 389 448 25,000  Level Boston Center
12:08PM 41.5539 -73.4525 20° North 389 448 25,000  Level Boston Center
12:09PM 41.6625 -73.4406 North 384 442 25,000  Level Boston Center
12:10PM 41.7728 -73.4311 North 384 442 25,000  Level Boston Center
12:11PM 41.8814 -73.4189 North 389 448 25,000  Level Boston Center
12:12PM 41.9897 -73.4092 North 389 448 25,000  Level Boston Center
12:13PM 42.0922 -73.3942 North 398 458 25,000  Level Boston Center
12:14PM 42.2028 -73.3817 North 403 464 25,000  Level Boston Center
12:15PM 42.3133 -73.3694 North 403 464 25,000  Level Boston Center
12:16PM 42.4300 -73.3683 360° North 392 451 25,000  Level Boston Center
12:17PM 42.5531 -73.3419 North 391 450 25,000  Level Boston Center
12:18PM 42.6928 -73.3411 360° North 385 443 25,000  Level Boston Center
12:19PM 42.7886 -73.3314 North 385 443 25,000  Level Boston Center
12:20PM 42.8972 -73.3214 North 385 443 25,000 -240 Level Boston Center
12:21PM 43.0056 -73.3089 North 385 443 24,600 -840 Descending Boston Center
12:22PM 43.1119 -73.2989 North 385 443 23,400 -840 Descending Boston Center
12:23PM 43.2183 -73.2892 North 385 443 23,000 -240 Descending Boston Center
12:24PM 43.3144 -73.2761 North 367 422 23,000 -420 Level Boston Center
12:26PM 43.4208 -73.2633 North 362 417 22,200 -1,380 Descending Boston Center
12:27PM 43.5375 -73.2506 North 346 398 20,000 -2,100 Descending Boston Center
12:28PM 43.6333 -73.2433 North 346 398 18,000 -1,860 Descending Boston Center
12:29PM 43.7147 -73.2358 North 338 389 16,300 -1,800 Descending Boston Center
12:30PM 43.8044 -73.2256 North 322 371 14,500 -1,920 Descending Boston Center
12:31PM 43.8900 -73.2178 North 317 365 12,500 -2,100 Descending Boston Center
12:32PM 43.9731 -73.2275 355° North 299 344 10,400 -2,100 Descending Boston Center
12:33PM 44.0419 -73.2431 351° North 274 315 8,300 -2,160 Descending Boston Center
12:34PM 44.1064 -73.2556 352° North 244 281 6,100 -1,980 Descending Boston Center
12:35PM 44.1792 -73.2681 353° North 236 272 4,400 -1,500 Descending Boston Center
12:36PM 44.2461 -73.2428 15° North 237 273 3,100 -660 Descending Boston Center
12:37PM 44.3044 -73.2175 17° North 231 266 3,000 -120 Descending Boston Center